createdAt,value
2023-10-05T00:00:34.273Z,8.12
2023-10-05T00:01:34.425Z,8.13
2023-10-05T00:02:34.268Z,8.11
2023-10-05T00:03:34.527Z,8.12
2023-10-05T00:04:34.518Z,8.13
2023-10-05T00:05:34.298Z,8.18
2023-10-05T00:06:34.265Z,8.15
2023-10-05T00:07:34.265Z,8.15
2023-10-05T00:08:34.372Z,8.16
2023-10-05T00:09:34.311Z,8.14
2023-10-05T00:10:34.920Z,8.16
2023-10-05T00:11:34.897Z,8.3
2023-10-05T00:12:34.886Z,8.28
2023-10-05T00:13:34.899Z,8.26
2023-10-05T00:14:35.805Z,8.31
2023-10-05T00:15:37.729Z,8.32
2023-10-05T00:16:34.888Z,8.33
2023-10-05T00:17:35.065Z,8.36
2023-10-05T00:18:34.953Z,8.46
2023-10-05T00:19:35.055Z,8.43
2023-10-05T00:20:35.083Z,8.42
2023-10-05T00:21:35.071Z,8.4
2023-10-05T00:22:35.033Z,8.43
2023-10-05T00:23:35.013Z,8.45
2023-10-05T00:24:35.025Z,8.46
2023-10-05T00:25:35.547Z,8.45
2023-10-05T00:26:35.742Z,8.48
2023-10-05T00:27:35.138Z,8.48
2023-10-05T00:28:35.140Z,8.48
2023-10-05T00:29:36.287Z,8.5
2023-10-05T00:30:35.088Z,8.5
2023-10-05T00:31:35.164Z,8.51
2023-10-05T00:32:35.252Z,8.54
2023-10-05T00:33:35.117Z,8.62
2023-10-05T00:34:35.169Z,8.65
2023-10-05T00:35:35.180Z,8.68
2023-10-05T00:36:35.726Z,8.66
2023-10-05T00:37:35.282Z,8.69
2023-10-05T00:38:35.249Z,8.74
2023-10-05T00:39:35.308Z,8.73
2023-10-05T00:40:35.239Z,8.74
2023-10-05T00:41:35.288Z,8.76
2023-10-05T00:42:35.257Z,8.77
2023-10-05T00:43:35.279Z,8.78
2023-10-05T00:44:36.289Z,8.85
2023-10-05T00:45:35.378Z,8.79
2023-10-05T00:46:35.555Z,8.79
2023-10-05T00:47:40.593Z,8.78
2023-10-05T00:48:37.265Z,8.79
2023-10-05T00:49:37.409Z,8.79
2023-10-05T00:50:37.414Z,8.76
2023-10-05T00:51:37.492Z,8.7
2023-10-05T00:52:37.701Z,8.67
2023-10-05T00:53:37.513Z,8.66
2023-10-05T00:54:39.388Z,8.72
2023-10-05T00:55:37.630Z,8.68
2023-10-05T00:56:40.165Z,8.66
2023-10-05T00:57:37.551Z,8.74
2023-10-05T00:58:38.254Z,8.75
2023-10-05T00:59:37.474Z,8.77
2023-10-05T01:00:37.436Z,8.7
2023-10-05T01:01:37.471Z,8.7
2023-10-05T01:02:37.525Z,8.66
2023-10-05T01:03:37.619Z,8.64
2023-10-05T01:04:37.537Z,8.59
2023-10-05T01:05:37.504Z,8.55
2023-10-05T01:06:37.589Z,8.49
2023-10-05T01:07:37.569Z,8.47
2023-10-05T01:08:37.706Z,8.44
2023-10-05T01:09:37.620Z,8.43
2023-10-05T01:10:37.591Z,8.41
2023-10-05T01:11:37.622Z,8.41
2023-10-05T01:12:37.657Z,8.42
2023-10-05T01:13:37.648Z,8.41
2023-10-05T01:14:42.258Z,8.38
2023-10-05T01:15:38.983Z,8.36
2023-10-05T01:16:39.022Z,8.37
2023-10-05T01:17:39.022Z,8.34
2023-10-05T01:18:38.907Z,8.35
2023-10-05T01:19:39.485Z,8.42
2023-10-05T01:20:38.944Z,8.35
2023-10-05T01:21:38.950Z,8.33
2023-10-05T01:22:39.147Z,8.32
2023-10-05T01:23:38.950Z,8.39
2023-10-05T01:24:38.978Z,8.4
2023-10-05T01:25:38.985Z,8.36
2023-10-05T01:26:39.080Z,8.38
2023-10-05T01:27:39.072Z,8.5
2023-10-05T01:28:40.205Z,8.46
2023-10-05T01:29:39.091Z,8.42
2023-10-05T01:30:39.141Z,8.52
2023-10-05T01:31:39.130Z,8.54
2023-10-05T01:32:39.523Z,8.53
2023-10-05T01:33:39.088Z,8.56
2023-10-05T01:34:39.093Z,8.56
2023-10-05T01:35:39.150Z,8.58
2023-10-05T01:36:39.130Z,8.62
2023-10-05T01:37:39.641Z,8.62
2023-10-05T01:38:39.468Z,8.63
2023-10-05T01:39:39.206Z,8.68
2023-10-05T01:40:39.372Z,8.7
2023-10-05T01:41:39.227Z,8.72
2023-10-05T01:42:42.187Z,8.78
2023-10-05T01:43:39.219Z,8.8
2023-10-05T01:44:39.263Z,8.89
2023-10-05T01:45:39.335Z,8.91
2023-10-05T01:46:39.452Z,8.9
2023-10-05T01:47:39.535Z,8.95
2023-10-05T01:48:39.299Z,8.93
2023-10-05T01:49:39.319Z,8.94
2023-10-05T01:50:39.301Z,8.96
2023-10-05T01:51:39.486Z,8.98
2023-10-05T01:52:39.487Z,9.03
2023-10-05T01:53:39.361Z,9.04
2023-10-05T01:54:39.433Z,9.04
2023-10-05T01:55:39.545Z,9.04
2023-10-05T01:56:39.573Z,9.09
2023-10-05T01:57:39.431Z,9.06
2023-10-05T01:58:39.427Z,9.03
2023-10-05T01:59:39.678Z,9.05
2023-10-05T02:00:39.517Z,9.09
2023-10-05T02:01:39.868Z,9.16
2023-10-05T02:02:39.595Z,9.16
2023-10-05T02:03:39.682Z,9.13
2023-10-05T02:04:39.744Z,9.07
2023-10-05T02:05:39.480Z,9.09
2023-10-05T02:06:39.731Z,9.12
2023-10-05T02:07:39.550Z,9.14
2023-10-05T02:08:39.685Z,9.16
2023-10-05T02:09:39.601Z,9.14
2023-10-05T02:10:39.508Z,9.13
2023-10-05T02:11:39.604Z,9.09
2023-10-05T02:12:39.574Z,9.03
2023-10-05T02:13:39.642Z,8.98
2023-10-05T02:14:39.670Z,8.95
2023-10-05T02:15:40.158Z,8.93
2023-10-05T02:16:39.681Z,8.92
2023-10-05T02:17:39.973Z,8.89
2023-10-05T02:18:39.730Z,8.88
2023-10-05T02:19:39.748Z,8.85
2023-10-05T02:20:42.483Z,8.85
2023-10-05T02:21:39.679Z,8.89
2023-10-05T02:22:39.717Z,8.89
2023-10-05T02:23:39.820Z,8.87
2023-10-05T02:24:39.815Z,8.94
2023-10-05T02:25:39.818Z,8.87
2023-10-05T02:26:43.325Z,8.87
2023-10-05T02:27:39.930Z,8.9
2023-10-05T02:28:40.120Z,8.9
2023-10-05T02:29:39.995Z,8.92
2023-10-05T02:30:39.981Z,8.9
2023-10-05T02:31:41.765Z,8.85
2023-10-05T02:32:40.046Z,8.87
2023-10-05T02:33:40.223Z,8.83
2023-10-05T02:34:40.068Z,8.82
2023-10-05T02:35:40.084Z,8.86
2023-10-05T02:36:40.033Z,8.84
2023-10-05T02:37:40.061Z,8.82
2023-10-05T02:38:40.432Z,8.81
2023-10-05T02:39:40.380Z,8.8
2023-10-05T02:40:40.229Z,8.83
2023-10-05T02:41:40.146Z,8.82
2023-10-05T02:42:40.209Z,8.85
2023-10-05T02:43:40.155Z,8.81
2023-10-05T02:44:40.404Z,8.81
2023-10-05T02:45:40.214Z,8.82
2023-10-05T02:46:40.318Z,8.81
2023-10-05T02:47:40.375Z,8.84
2023-10-05T02:48:40.248Z,8.85
2023-10-05T02:49:40.955Z,8.87
2023-10-05T02:50:40.257Z,8.89
2023-10-05T02:51:40.281Z,8.89
2023-10-05T02:52:40.418Z,8.93
2023-10-05T02:53:40.643Z,9.01
2023-10-05T02:54:40.868Z,9
2023-10-05T02:55:40.824Z,8.99
2023-10-05T02:56:40.856Z,9.02
2023-10-05T02:57:40.863Z,9.02
2023-10-05T02:58:40.940Z,9.03
2023-10-05T02:59:41.227Z,9.01
2023-10-05T03:00:40.900Z,9
2023-10-05T03:01:41.058Z,9
2023-10-05T03:02:41.095Z,8.99
2023-10-05T03:03:41.079Z,8.98
2023-10-05T03:04:41.469Z,8.96
2023-10-05T03:05:41.153Z,8.98
2023-10-05T03:06:41.452Z,9
2023-10-05T03:07:41.086Z,8.96
2023-10-05T03:08:41.027Z,8.94
2023-10-05T03:09:41.149Z,8.95
2023-10-05T03:10:41.080Z,8.98
2023-10-05T03:11:41.790Z,8.98
2023-10-05T03:12:41.074Z,9.01
2023-10-05T03:13:41.106Z,9.02
2023-10-05T03:14:41.228Z,9.01
2023-10-05T03:15:41.129Z,9
2023-10-05T03:16:41.341Z,8.99
2023-10-05T03:17:41.186Z,8.99
2023-10-05T03:18:41.222Z,9
2023-10-05T03:19:41.168Z,8.98
2023-10-05T03:20:41.202Z,8.97
2023-10-05T03:21:41.523Z,8.93
2023-10-05T03:22:41.257Z,8.94
2023-10-05T03:23:42.017Z,8.94
2023-10-05T03:24:41.306Z,8.94
2023-10-05T03:25:41.576Z,8.92
2023-10-05T03:26:41.806Z,8.91
2023-10-05T03:27:41.554Z,8.92
2023-10-05T03:28:41.342Z,8.92
2023-10-05T03:29:41.660Z,8.93
2023-10-05T03:30:41.377Z,8.96
2023-10-05T03:31:41.613Z,8.97
2023-10-05T03:32:41.792Z,8.98
2023-10-05T03:33:41.759Z,8.99
2023-10-05T03:34:42.095Z,8.99
2023-10-05T03:35:41.432Z,9
2023-10-05T03:36:41.508Z,9.03
2023-10-05T03:37:41.525Z,9.03
2023-10-05T03:38:44.225Z,9.03
2023-10-05T03:39:41.501Z,9.04
2023-10-05T03:40:41.588Z,9.06
2023-10-05T03:41:41.671Z,9.06
2023-10-05T03:42:41.537Z,9.06
2023-10-05T03:43:41.518Z,9.04
2023-10-05T03:44:41.809Z,9.04
2023-10-05T03:45:41.560Z,9.04
2023-10-05T03:46:41.659Z,9.06
2023-10-05T03:47:41.725Z,9.02
2023-10-05T03:48:41.629Z,9
2023-10-05T03:49:41.612Z,9.03
2023-10-05T03:50:41.675Z,9.04
2023-10-05T03:51:41.638Z,9.04
2023-10-05T03:52:41.688Z,9.03
2023-10-05T03:53:44.881Z,9.04
2023-10-05T03:54:41.757Z,9.05
2023-10-05T03:55:41.728Z,9.05
2023-10-05T03:56:41.747Z,9.03
2023-10-05T03:57:41.750Z,9.04
2023-10-05T03:58:41.833Z,9.05
2023-10-05T03:59:41.801Z,9.03
2023-10-05T04:00:41.823Z,9.12
2023-10-05T04:01:41.859Z,9.1
2023-10-05T04:02:41.919Z,9.07
2023-10-05T04:03:45.499Z,9.09
2023-10-05T04:04:42.217Z,9.14
2023-10-05T04:05:42.210Z,9.14
2023-10-05T04:06:42.186Z,9.11
2023-10-05T04:07:44.652Z,9.14
2023-10-05T04:08:42.279Z,9.16
2023-10-05T04:09:42.285Z,9.15
2023-10-05T04:10:42.290Z,9.13
2023-10-05T04:11:42.508Z,9.13
2023-10-05T04:12:42.322Z,9.13
2023-10-05T04:13:42.298Z,9.13
2023-10-05T04:14:42.399Z,9.19
2023-10-05T04:15:42.390Z,9.2
2023-10-05T04:16:42.359Z,9.2
2023-10-05T04:17:42.507Z,9.24
2023-10-05T04:18:42.478Z,9.21
2023-10-05T04:19:42.495Z,9.21
2023-10-05T04:20:42.596Z,9.28
2023-10-05T04:21:42.410Z,9.22
2023-10-05T04:22:42.436Z,9.23
2023-10-05T04:23:42.710Z,9.19
2023-10-05T04:24:42.953Z,9.19
2023-10-05T04:25:42.951Z,9.19
2023-10-05T04:26:43.225Z,9.2
2023-10-05T04:27:43.431Z,9.19
2023-10-05T04:28:43.007Z,9.21
2023-10-05T04:29:43.000Z,9.2
2023-10-05T04:30:43.044Z,9.19
2023-10-05T04:31:43.057Z,9.2
2023-10-05T04:32:43.074Z,9.18
2023-10-05T04:33:43.110Z,9.13
2023-10-05T04:34:43.169Z,9.11
2023-10-05T04:35:43.050Z,9.08
2023-10-05T04:36:43.117Z,9.09
2023-10-05T04:37:43.140Z,9.06
2023-10-05T04:38:43.321Z,9.02
2023-10-05T04:39:43.209Z,9.01
2023-10-05T04:40:43.175Z,9
2023-10-05T04:41:43.218Z,9
2023-10-05T04:42:43.191Z,8.97
2023-10-05T04:43:43.299Z,8.97
2023-10-05T04:44:43.238Z,8.93
2023-10-05T04:45:43.545Z,8.91
2023-10-05T04:46:43.452Z,8.89
2023-10-05T04:47:43.615Z,8.91
2023-10-05T04:48:43.412Z,8.88
2023-10-05T04:49:43.310Z,8.85
2023-10-05T04:50:43.349Z,8.84
2023-10-05T04:51:43.502Z,8.83
2023-10-05T04:52:43.633Z,8.82
2023-10-05T04:53:43.411Z,8.82
2023-10-05T04:54:43.525Z,8.8
2023-10-05T04:55:43.666Z,8.79
2023-10-05T04:56:43.561Z,8.78
2023-10-05T04:57:43.415Z,8.96
2023-10-05T04:58:43.471Z,8.85
2023-10-05T04:59:43.525Z,8.82
2023-10-05T05:00:43.628Z,8.76
2023-10-05T05:01:44.570Z,8.81
2023-10-05T05:02:43.677Z,8.85
2023-10-05T05:03:43.665Z,8.9
2023-10-05T05:04:43.600Z,8.89
2023-10-05T05:05:44.825Z,8.89
2023-10-05T05:06:43.634Z,8.79
2023-10-05T05:07:43.669Z,8.85
2023-10-05T05:08:43.732Z,8.83
2023-10-05T05:09:43.649Z,8.81
2023-10-05T05:10:44.304Z,8.81
2023-10-05T05:11:43.668Z,8.81
2023-10-05T05:12:43.734Z,8.8
2023-10-05T05:13:43.696Z,8.85
2023-10-05T05:14:47.334Z,8.87
2023-10-05T05:15:44.128Z,8.89
2023-10-05T05:16:44.406Z,8.85
2023-10-05T05:17:44.285Z,8.96
2023-10-05T05:18:44.460Z,8.95
2023-10-05T05:19:44.099Z,8.91
2023-10-05T05:20:44.501Z,8.88
2023-10-05T05:21:44.152Z,8.95
2023-10-05T05:22:44.106Z,8.94
2023-10-05T05:23:44.216Z,8.87
2023-10-05T05:24:44.296Z,8.86
2023-10-05T05:25:44.165Z,8.92
2023-10-05T05:26:44.179Z,8.99
2023-10-05T05:27:44.221Z,8.94
2023-10-05T05:28:45.133Z,8.89
2023-10-05T05:29:45.512Z,8.9
2023-10-05T05:30:45.174Z,8.92
2023-10-05T05:31:45.348Z,8.86
2023-10-05T05:32:45.091Z,8.86
2023-10-05T05:33:45.227Z,8.88
2023-10-05T05:34:45.189Z,8.88
2023-10-05T05:35:45.112Z,8.85
2023-10-05T05:36:45.150Z,8.87
2023-10-05T05:37:49.262Z,8.91
2023-10-05T05:38:46.845Z,8.87
2023-10-05T05:39:46.880Z,8.84
2023-10-05T05:40:46.899Z,8.81
2023-10-05T05:41:46.995Z,8.92
2023-10-05T05:42:46.964Z,8.86
2023-10-05T05:43:47.467Z,8.94
2023-10-05T05:44:47.020Z,8.98
2023-10-05T05:45:46.914Z,8.94
2023-10-05T05:46:47.155Z,8.99
2023-10-05T05:47:47.491Z,9.02
2023-10-05T05:48:46.965Z,9.03
2023-10-05T05:49:47.822Z,9.1
2023-10-05T05:50:47.036Z,9.15
2023-10-05T05:51:47.014Z,9.13
2023-10-05T05:52:47.830Z,9.15
2023-10-05T05:53:47.261Z,9.19
2023-10-05T05:54:47.041Z,9.23
2023-10-05T05:55:47.457Z,9.23
2023-10-05T05:56:47.086Z,9.19
2023-10-05T05:57:49.986Z,9.24
2023-10-05T05:58:47.794Z,9.44
2023-10-05T05:59:47.520Z,9.39
2023-10-05T06:00:47.143Z,9.44
2023-10-05T06:01:47.214Z,9.38
2023-10-05T06:02:47.227Z,9.52
2023-10-05T06:03:47.589Z,9.43
2023-10-05T06:04:47.378Z,9.43
2023-10-05T06:05:47.228Z,9.47
2023-10-05T06:06:47.297Z,9.5
2023-10-05T06:07:47.267Z,9.53
2023-10-05T06:08:47.595Z,9.58
2023-10-05T06:09:47.319Z,9.48
2023-10-05T06:10:47.398Z,9.5
2023-10-05T06:11:47.358Z,9.59
2023-10-05T06:12:52.596Z,9.66
2023-10-05T06:13:49.793Z,9.55
2023-10-05T06:14:49.493Z,9.57
2023-10-05T06:15:49.523Z,9.54
2023-10-05T06:16:49.703Z,9.56
2023-10-05T06:17:49.608Z,9.64
2023-10-05T06:18:49.558Z,9.64
2023-10-05T06:19:49.770Z,9.68
2023-10-05T06:20:52.192Z,9.69
2023-10-05T06:21:49.577Z,9.78
2023-10-05T06:22:49.604Z,9.75
2023-10-05T06:23:49.811Z,9.72
2023-10-05T06:24:49.670Z,9.77
2023-10-05T06:25:49.779Z,9.88
2023-10-05T06:26:50.117Z,9.88
2023-10-05T06:27:50.397Z,9.8
2023-10-05T06:28:49.728Z,9.82
2023-10-05T06:29:49.728Z,9.91
2023-10-05T06:30:49.814Z,9.77
2023-10-05T06:31:49.854Z,9.87
2023-10-05T06:32:50.054Z,9.86
2023-10-05T06:33:50.048Z,9.79
2023-10-05T06:34:49.778Z,9.7
2023-10-05T06:35:49.952Z,9.68
2023-10-05T06:36:49.832Z,9.75
2023-10-05T06:37:49.869Z,9.8
2023-10-05T06:38:50.268Z,9.8
2023-10-05T06:39:50.110Z,9.76
2023-10-05T06:40:49.947Z,9.72
2023-10-05T06:41:49.919Z,9.64
2023-10-05T06:42:50.131Z,9.7
2023-10-05T06:43:49.954Z,9.83
2023-10-05T06:44:50.053Z,9.77
2023-10-05T06:45:50.052Z,9.69
2023-10-05T06:46:50.398Z,9.88
2023-10-05T06:47:53.127Z,9.83
2023-10-05T06:48:50.094Z,9.75
2023-10-05T06:49:50.137Z,9.79
2023-10-05T06:50:50.268Z,9.74
2023-10-05T06:51:50.177Z,9.75
2023-10-05T06:52:50.263Z,9.86
2023-10-05T06:53:50.174Z,9.82
2023-10-05T06:54:50.463Z,9.65
2023-10-05T06:55:50.204Z,9.81
2023-10-05T06:56:50.412Z,9.74
2023-10-05T06:57:50.394Z,9.7
2023-10-05T06:58:50.540Z,9.72
2023-10-05T06:59:52.888Z,9.65
2023-10-05T07:00:50.232Z,9.75
2023-10-05T07:01:50.466Z,9.72
2023-10-05T07:02:51.811Z,9.82
2023-10-05T07:03:50.923Z,9.8
2023-10-05T07:04:50.336Z,9.86
2023-10-05T07:05:50.635Z,9.9
2023-10-05T07:06:50.352Z,9.96
2023-10-05T07:07:50.403Z,9.93
2023-10-05T07:08:50.658Z,9.9
2023-10-05T07:09:50.414Z,10.14
2023-10-05T07:10:50.383Z,10.1
2023-10-05T07:11:50.362Z,10.09
2023-10-05T07:12:50.495Z,10.18
2023-10-05T07:13:50.460Z,10.15
2023-10-05T07:14:50.501Z,10.11
2023-10-05T07:15:50.695Z,10.15
2023-10-05T07:16:50.677Z,10.08
2023-10-05T07:17:50.956Z,10.18
2023-10-05T07:18:50.597Z,10.15
2023-10-05T07:19:50.576Z,10.06
2023-10-05T07:20:50.595Z,10.19
2023-10-05T07:21:50.546Z,10.11
2023-10-05T07:22:50.560Z,10.12
2023-10-05T07:23:51.146Z,9.99
2023-10-05T07:24:51.246Z,10
2023-10-05T07:25:51.094Z,10.02
2023-10-05T07:26:51.182Z,10.08
2023-10-05T07:27:52.076Z,10.15
2023-10-05T07:28:51.141Z,10.07
2023-10-05T07:29:51.161Z,10.2
2023-10-05T07:30:51.180Z,10.21
2023-10-05T07:31:51.328Z,10.05
2023-10-05T07:33:01.361Z,10.14
2023-10-05T07:33:52.402Z,10.05
2023-10-05T07:34:52.426Z,10.16
2023-10-05T07:35:52.624Z,10.25
2023-10-05T07:36:52.416Z,10.27
2023-10-05T07:37:52.422Z,10.19
2023-10-05T07:38:52.440Z,10.09
2023-10-05T07:39:52.628Z,10.23
2023-10-05T07:40:52.695Z,10.25
2023-10-05T07:41:52.483Z,10.29
2023-10-05T07:42:52.529Z,10.24
2023-10-05T07:44:07.537Z,10.23
2023-10-05T07:44:55.275Z,10.17
2023-10-05T07:45:55.230Z,10.11
2023-10-05T07:46:55.168Z,10.16
2023-10-05T07:47:55.208Z,10.23
2023-10-05T07:48:55.138Z,10.19
2023-10-05T07:49:55.630Z,10.21
2023-10-05T07:50:55.290Z,10.06
2023-10-05T07:51:55.287Z,10.02
2023-10-05T07:52:55.152Z,10.08
2023-10-05T07:53:55.175Z,10.08
2023-10-05T07:54:55.303Z,10.04
2023-10-05T07:55:55.341Z,10.05
2023-10-05T07:57:55.408Z,10.08
2023-10-05T07:58:55.331Z,10.11
2023-10-05T07:59:55.272Z,10.13
2023-10-05T08:00:55.438Z,10.17
2023-10-05T08:01:55.810Z,10.28
2023-10-05T08:02:55.486Z,10.19
2023-10-05T08:03:55.576Z,10.17
2023-10-05T08:04:55.500Z,10.11
2023-10-05T08:05:55.444Z,10.19
2023-10-05T08:06:55.497Z,10.27
2023-10-05T08:07:55.464Z,10.22
2023-10-05T08:08:55.413Z,10.35
2023-10-05T08:09:55.460Z,10.49
2023-10-05T08:10:55.425Z,10.26
2023-10-05T08:11:55.550Z,10.32
2023-10-05T08:12:55.521Z,10.4
2023-10-05T08:13:55.488Z,10.46
2023-10-05T08:14:55.557Z,10.45
2023-10-05T08:15:58.415Z,10.45
2023-10-05T08:16:55.655Z,10.5
2023-10-05T08:17:55.561Z,10.39
2023-10-05T08:18:55.517Z,10.35
2023-10-05T08:19:55.615Z,10.49
2023-10-05T08:20:55.618Z,10.56
2023-10-05T08:21:55.934Z,10.56
2023-10-05T08:22:55.989Z,10.42
2023-10-05T08:23:55.690Z,10.48
2023-10-05T08:25:04.848Z,10.49
2023-10-05T08:25:56.973Z,10.44
2023-10-05T08:26:57.039Z,10.42
2023-10-05T08:27:57.408Z,10.47
2023-10-05T08:28:57.055Z,10.48
2023-10-05T08:29:57.449Z,10.58
2023-10-05T08:30:57.075Z,10.57
2023-10-05T08:31:57.115Z,10.53
2023-10-05T08:32:58.347Z,10.57
2023-10-05T08:33:57.852Z,10.57
2023-10-05T08:34:57.831Z,10.64
2023-10-05T08:35:57.868Z,10.67
2023-10-05T08:36:57.887Z,10.6
2023-10-05T08:37:57.855Z,10.57
2023-10-05T08:38:58.162Z,10.56
2023-10-05T08:39:57.938Z,10.54
2023-10-05T08:40:57.974Z,10.53
2023-10-05T08:41:57.960Z,10.62
2023-10-05T08:43:00.925Z,10.68
2023-10-05T08:44:01.974Z,10.83
2023-10-05T08:44:59.125Z,11
2023-10-05T08:46:03.394Z,10.93
2023-10-05T08:47:00.353Z,10.82
2023-10-05T08:48:00.469Z,10.99
2023-10-05T08:49:00.170Z,10.94
2023-10-05T08:50:00.278Z,10.77
2023-10-05T08:51:00.815Z,10.76
2023-10-05T08:52:04.953Z,10.77
2023-10-05T08:53:02.188Z,10.68
2023-10-05T08:54:01.892Z,10.75
2023-10-05T08:55:02.510Z,10.63
2023-10-05T08:56:01.915Z,10.62
2023-10-05T08:57:01.934Z,10.55
2023-10-05T08:58:02.044Z,10.7
2023-10-05T08:59:01.960Z,10.69
2023-10-05T09:00:03.533Z,10.66
2023-10-05T09:01:02.164Z,10.61
2023-10-05T09:02:02.086Z,10.49
2023-10-05T09:03:02.025Z,10.63
2023-10-05T09:04:03.415Z,10.59
2023-10-05T09:05:02.175Z,10.67
2023-10-05T09:06:04.048Z,10.79
2023-10-05T09:07:03.344Z,10.67
2023-10-05T09:08:02.117Z,10.76
2023-10-05T09:09:02.102Z,10.66
2023-10-05T09:10:03.015Z,10.78
2023-10-05T09:11:02.159Z,10.78
2023-10-05T09:12:15.759Z,10.8
2023-10-05T09:13:02.503Z,10.75
2023-10-05T09:14:04.080Z,10.72
2023-10-05T09:16:04.454Z,10.93
2023-10-05T09:17:05.713Z,10.92
2023-10-05T09:18:04.639Z,11.03
2023-10-05T09:19:04.804Z,11.05
2023-10-05T09:21:08.316Z,11.08
2023-10-05T09:22:08.861Z,10.87
2023-10-05T09:23:09.268Z,10.9
2023-10-05T09:24:20.771Z,10.85
2023-10-05T09:25:12.764Z,10.94
2023-10-05T09:26:24.203Z,10.92
2023-10-05T09:27:15.890Z,10.86
2023-10-05T09:28:29.370Z,10.74
2023-10-05T09:29:19.599Z,10.8
2023-10-05T09:30:16.476Z,10.84
2023-10-05T09:31:19.277Z,10.74
2023-10-05T09:32:27.297Z,10.66
2023-10-05T09:33:19.236Z,10.58
2023-10-05T09:34:19.428Z,10.58
2023-10-05T09:35:28.336Z,10.53
2023-10-05T09:36:20.090Z,10.52
2023-10-05T09:37:20.032Z,10.55
2023-10-05T09:38:21.710Z,10.45
2023-10-05T09:39:21.171Z,10.54
2023-10-05T09:40:22.822Z,10.46
2023-10-05T09:41:20.173Z,10.45
2023-10-05T09:42:23.856Z,10.41
2023-10-05T09:43:21.951Z,10.38
2023-10-05T09:44:23.833Z,10.31
2023-10-05T09:45:21.845Z,10.36
2023-10-05T09:46:21.609Z,10.28
2023-10-05T09:47:27.703Z,10.35
2023-10-05T09:48:25.395Z,10.38
2023-10-05T09:49:24.632Z,10.4
2023-10-05T09:50:25.382Z,10.36
2023-10-05T09:51:24.789Z,10.38
2023-10-05T09:52:24.884Z,10.35
2023-10-05T09:53:24.884Z,10.35
2023-10-05T09:54:26.324Z,10.36
2023-10-05T09:55:24.827Z,10.31
2023-10-05T09:56:36.964Z,10.35
2023-10-05T09:57:25.144Z,10.4
2023-10-05T09:58:24.948Z,10.45
2023-10-05T09:59:26.384Z,10.28
2023-10-05T10:00:24.916Z,10.29
2023-10-05T10:01:24.843Z,10.33
2023-10-05T10:03:25.597Z,10.37
2023-10-05T10:04:26.863Z,10.42
2023-10-05T10:05:27.638Z,10.45
2023-10-05T10:06:26.142Z,10.34
2023-10-05T10:07:26.358Z,10.28
2023-10-05T10:08:27.577Z,10.23
2023-10-05T10:09:26.111Z,10.33
2023-10-05T10:10:25.883Z,10.3
2023-10-05T10:11:26.650Z,10.32
2023-10-05T10:12:35.151Z,10.25
2023-10-05T10:13:28.254Z,10.28
2023-10-05T10:14:26.653Z,10.37
2023-10-05T10:15:27.184Z,10.33
2023-10-05T10:16:26.580Z,10.27
2023-10-05T10:17:32.888Z,10.32
2023-10-05T10:18:29.259Z,10.29
2023-10-05T10:19:29.373Z,10.4
2023-10-05T10:20:29.608Z,10.36
2023-10-05T10:21:38.833Z,10.39
2023-10-05T10:22:30.037Z,10.41
2023-10-05T10:23:30.705Z,10.41
2023-10-05T10:24:30.203Z,10.43
2023-10-05T10:25:38.544Z,10.53
2023-10-05T10:27:38.417Z,10.47
2023-10-05T10:28:39.208Z,10.53
2023-10-05T10:29:47.565Z,10.57
2023-10-05T10:30:39.340Z,10.5
2023-10-05T10:31:45.780Z,10.48
2023-10-05T10:32:42.937Z,10.49
2023-10-05T10:33:43.095Z,10.58
2023-10-05T10:34:42.849Z,10.6
2023-10-05T10:35:42.798Z,10.57
2023-10-05T10:36:49.774Z,10.6
2023-10-05T10:37:47.385Z,10.59
2023-10-05T10:38:46.972Z,10.62
2023-10-05T10:39:46.411Z,10.72
2023-10-05T10:41:00.137Z,10.66
2023-10-05T10:41:59.615Z,10.62
2023-10-05T10:42:54.914Z,10.63
2023-10-05T10:43:51.638Z,10.6
2023-10-05T10:44:52.224Z,10.64
2023-10-05T10:45:51.734Z,10.64
2023-10-05T10:46:51.846Z,10.7
2023-10-05T10:47:52.077Z,10.71
2023-10-05T10:48:52.426Z,10.79
2023-10-05T10:50:53.988Z,10.7
2023-10-05T10:51:53.842Z,10.69
2023-10-05T10:52:54.222Z,10.74
2023-10-05T10:53:57.030Z,10.73
2023-10-05T10:54:56.925Z,10.81
2023-10-05T10:56:04.620Z,10.91
2023-10-05T10:56:56.509Z,10.73
2023-10-05T10:57:57.145Z,10.72
2023-10-05T10:58:56.893Z,10.76
2023-10-05T10:59:56.372Z,10.78
2023-10-05T11:00:56.952Z,10.81
2023-10-05T11:01:56.405Z,10.82
2023-10-05T11:02:56.649Z,10.8
2023-10-05T11:03:56.370Z,10.77
2023-10-05T11:05:01.111Z,10.7
2023-10-05T11:05:58.570Z,10.77
2023-10-05T11:06:59.049Z,10.66
2023-10-05T11:07:58.243Z,10.7
2023-10-05T11:08:58.322Z,10.74
2023-10-05T11:10:00.235Z,10.69
2023-10-05T11:11:02.475Z,10.72
2023-10-05T11:11:59.185Z,10.79
2023-10-05T11:13:05.797Z,10.68
2023-10-05T11:14:02.553Z,10.66
2023-10-05T11:15:02.987Z,10.71
2023-10-05T11:16:02.591Z,10.65
2023-10-05T11:17:02.722Z,10.69
2023-10-05T11:18:05.022Z,10.69
2023-10-05T11:19:03.511Z,10.71
2023-10-05T11:20:03.978Z,10.7
2023-10-05T11:21:09.770Z,10.65
2023-10-05T11:22:06.801Z,10.67
2023-10-05T11:23:06.512Z,10.7
2023-10-05T11:24:06.996Z,10.6
2023-10-05T11:25:07.008Z,10.65
2023-10-05T11:26:10.903Z,10.61
2023-10-05T11:27:13.645Z,10.67
2023-10-05T11:28:11.589Z,10.66
2023-10-05T11:29:10.473Z,10.68
2023-10-05T11:30:20.466Z,10.66
2023-10-05T11:31:31.605Z,10.66
2023-10-05T11:32:35.609Z,10.67
2023-10-05T11:33:25.633Z,10.74
2023-10-05T11:35:16.332Z,10.73
2023-10-05T11:35:23.600Z,10.77
2023-10-05T11:36:24.440Z,10.69
2023-10-05T11:37:20.991Z,10.78
2023-10-05T11:38:21.371Z,10.81
2023-10-05T11:39:24.769Z,10.84
2023-10-05T11:40:21.258Z,10.85
2023-10-05T11:41:21.329Z,10.85
2023-10-05T11:42:21.280Z,10.81
2023-10-05T11:43:21.564Z,10.81
2023-10-05T11:44:21.356Z,10.77
2023-10-05T11:45:21.284Z,10.79
2023-10-05T11:46:21.340Z,10.81
2023-10-05T11:47:21.752Z,10.85
2023-10-05T11:48:21.776Z,10.75
2023-10-05T11:49:21.932Z,10.73
2023-10-05T11:50:21.375Z,10.72
2023-10-05T11:51:22.039Z,10.73
2023-10-05T11:52:21.387Z,10.79
2023-10-05T11:53:21.364Z,10.83
2023-10-05T11:54:21.423Z,10.76
2023-10-05T11:55:21.568Z,10.75
2023-10-05T11:56:21.420Z,10.72
2023-10-05T11:57:21.507Z,10.75
2023-10-05T11:58:21.488Z,10.66
2023-10-05T12:00:24.012Z,10.65
2023-10-05T12:01:24.042Z,10.63
2023-10-05T12:02:24.137Z,10.68
2023-10-05T12:03:24.139Z,10.7
2023-10-05T12:04:24.723Z,10.7
2023-10-05T12:05:24.457Z,10.71
2023-10-05T12:06:24.060Z,10.66
2023-10-05T12:07:24.137Z,10.66
2023-10-05T12:08:24.133Z,10.68
2023-10-05T12:09:24.102Z,10.69
2023-10-05T12:10:24.426Z,10.71
2023-10-05T12:11:24.122Z,10.73
2023-10-05T12:12:24.137Z,10.72
2023-10-05T12:13:24.488Z,10.63
2023-10-05T12:14:24.292Z,10.63
2023-10-05T12:15:24.316Z,10.67
2023-10-05T12:16:27.119Z,10.65
2023-10-05T12:17:24.194Z,10.63
2023-10-05T12:18:24.206Z,10.71
2023-10-05T12:19:24.758Z,10.64
2023-10-05T12:20:24.240Z,10.68
2023-10-05T12:21:24.347Z,10.65
2023-10-05T12:22:24.279Z,10.66
2023-10-05T12:23:24.278Z,10.62
2023-10-05T12:24:24.287Z,10.65
2023-10-05T12:25:24.383Z,10.63
2023-10-05T12:26:24.317Z,10.64
2023-10-05T12:27:24.329Z,10.58
2023-10-05T12:28:24.685Z,10.57
2023-10-05T12:29:24.492Z,10.61
2023-10-05T12:30:24.383Z,10.58
2023-10-05T12:31:24.557Z,10.57
2023-10-05T12:32:24.410Z,10.61
2023-10-05T12:33:24.421Z,10.61
2023-10-05T12:34:29.295Z,10.6
2023-10-05T12:35:26.189Z,10.58
2023-10-05T12:36:26.261Z,10.51
2023-10-05T12:37:26.223Z,10.54
2023-10-05T12:38:26.231Z,10.55
2023-10-05T12:39:26.236Z,10.56
2023-10-05T12:40:26.322Z,10.58
2023-10-05T12:41:26.280Z,10.58
2023-10-05T12:42:26.265Z,10.57
2023-10-05T12:43:26.292Z,10.52
2023-10-05T12:44:26.285Z,10.56
2023-10-05T12:45:26.774Z,10.52
2023-10-05T12:46:26.432Z,10.51
2023-10-05T12:47:26.519Z,10.52
2023-10-05T12:48:26.404Z,10.55
2023-10-05T12:49:26.391Z,10.52
2023-10-05T12:50:27.209Z,10.5
2023-10-05T12:51:26.384Z,10.52
2023-10-05T12:52:26.458Z,10.52
2023-10-05T12:53:26.424Z,10.5
2023-10-05T12:54:26.432Z,10.57
2023-10-05T12:55:26.500Z,10.58
2023-10-05T12:56:26.501Z,10.55
2023-10-05T12:57:26.521Z,10.53
2023-10-05T12:58:26.508Z,10.54
2023-10-05T12:59:26.531Z,10.54
2023-10-05T13:00:27.250Z,10.5
2023-10-05T13:01:26.614Z,10.5
2023-10-05T13:02:26.563Z,10.52
2023-10-05T13:03:26.682Z,10.54
2023-10-05T13:04:26.638Z,10.51
2023-10-05T13:05:31.426Z,10.54
2023-10-05T13:06:29.989Z,10.48
2023-10-05T13:07:30.029Z,10.52
2023-10-05T13:08:30.022Z,10.49
2023-10-05T13:09:29.994Z,10.48
2023-10-05T13:10:30.235Z,10.49
2023-10-05T13:11:30.075Z,10.45
2023-10-05T13:12:30.045Z,10.46
2023-10-05T13:13:30.422Z,10.5
2023-10-05T13:14:30.077Z,10.44
2023-10-05T13:15:30.262Z,10.46
2023-10-05T13:16:30.217Z,10.43
2023-10-05T13:17:30.820Z,10.43
2023-10-05T13:18:30.765Z,10.46
2023-10-05T13:19:30.798Z,10.43